Loging...

KPDC, Korea Polar Data Center

Korea Polar Data Center Scientific observations and results from Antarctica shall
be exchanged and made freely available

Keyword Search

Advanced Search

Search 28,369 data out of 28,369

Metadata Search Results1
No. Title Reg. Date
1601 [KOPRI-KVH-00002561]Urospora penicilliformis (Roth) Areschoug (KOPRI-CH3613) 2019-09-18
1602 [KOPRI-KVH-00002562]Urospora penicilliformis (Roth) Areschoug (KOPRI-CH3614) 2019-09-18
1603 [KOPRI-KVH-00002563]Urospora penicilliformis (Roth) Areschoug (KOPRI-CH3615) 2019-09-18
1604 [KOPRI-KVH-00002564]Urospora penicilliformis (Roth) Areschoug (KOPRI-CH3616) 2019-09-18
1605 [KOPRI-KVH-00002565]Urospora penicilliformis (Roth) Areschoug (KOPRI-CH3617) 2019-09-18
1606 [KOPRI-KVH-00002566]Urospora penicilliformis (Roth) Areschoug (KOPRI-CH3618) 2019-09-18
1607 [KOPRI-KVH-00002567]Urospora penicilliformis (Roth) Areschoug (KOPRI-CH3619) 2019-09-18
1608 [KOPRI-KVH-00002568]Urospora penicilliformis (Roth) Areschoug (KOPRI-CH3620) 2019-09-18
1609 [KOPRI-KVH-00002569]Urospora penicilliformis (Roth) Areschoug (KOPRI-CH3621) 2019-09-18
1610 [KOPRI-KVH-00002570]Urospora penicilliformis (Roth) Areschoug (KOPRI-CH3622) 2019-09-18
1611 [KOPRI-KVH-00002571]Urospora penicilliformis (Roth) Areschoug (KOPRI-CH3623) 2019-09-18
1612 [KOPRI-KVH-00002572]Georgiella confluens (Reinsch) Kylin (KOPRI-CH3624) 2019-09-18
1613 [KOPRI-KVH-00002573]Georgiella confluens (Reinsch) Kylin (KOPRI-CH3625) 2019-09-18
1614 [KOPRI-KVH-00002574]Georgiella confluens (Reinsch) Kylin (KOPRI-CH3626) 2019-09-18
1615 [KOPRI-KVH-00002589]Phycodrys sp. (KOPRI-CH3627) 2019-09-18
1616 [KOPRI-KVH-00002575]Porphyra plocamiestris R.W.Ricker (KOPRI-CH3628) 2019-09-18
1617 [KOPRI-KVH-00002576]Iridaea cordata (Turner) Bory de Saint-Vincent (KOPRI-CH3629) 2019-09-18
1618 [KOPRI-KPDC-00001054]Autonomous phase-sensitive Radio Echo Sounder (ApRES) data measured on the Getz Ice Shelf-West (2018) 2019-09-18
1619 [KOPRI-KPDC-00001193]RS19-GC01 2019-09-18
1620 [KOPRI-KPDC-00001192]RS19-GC02B 2019-09-18
1621 [KOPRI-KPDC-00001191]RS19-GC03 2019-09-18
1622 [KOPRI-KPDC-00001190]RS19-GC04 2019-09-18
1623 [KOPRI-KPDC-00001189]RS19-GC05B 2019-09-18
1624 [KOPRI-KPDC-00001188]RS19-GC06 2019-09-18
1625 [KOPRI-KPDC-00001187]RS19-GC08 2019-09-18
1626 [KOPRI-KPDC-00001186]RS19-GC09 2019-09-18
1627 [KOPRI-KPDC-00001185]RS19-GC10 2019-09-18
1628 [KOPRI-KPDC-00001184]RS19-GC11 2019-09-18
1629 [KOPRI-KVH-00002601]Aulacomnium turgidum (Wahlenb.) Schwaegr. (ArM0003) 2019-08-21
1630 [KOPRI-KVH-00002600]Parmelia saxatilis (L.) Ach. (1803) (2016KGS-020) 2019-08-16
1631 [KOPRI-KVH-00002366]Himantothallus grandifolius (A.Gepp & E.S.Gepp) Zinova (KOPRI-CH3515) 2019-08-08
1632 [KOPRI-KPDC-00001173]Surface temperature, Humidity, Pressure at the GPS stations around the Jang Bogo Station 2019-08-07
1633 [KOPRI-KVH-00002294]Notophycus fimbriatus R.L. Moe (KOPRI-CH3347) 2019-07-22
1634 [KOPRI-KVH-00002101]Dasya villosa Harvey (KOPRI-DCD6017) 2019-07-19
1635 [KOPRI-KVH-00002100]Dasya villosa Harvey (KOPRI-DCD6016) 2019-07-19
1636 [KOPRI-KVH-00002099]Dasya villosa Harvey (KOPRI-DCD6013) 2019-07-19
1637 [KOPRI-KVH-00002098]Dasya villosa Harvey (KOPRI-DCD6012) 2019-07-19
1638 [KOPRI-KVH-00002097]Dasya villosa Harvey (KOPRI-DCD6011) 2019-07-19
1639 [KOPRI-KVH-00002096]Dasya villosa Harvey (KOPRI-DCD6010) 2019-07-19
1640 [KOPRI-KVH-00002095]Dasya villosa Harvey (KOPRI-DCD6009) 2019-07-19
1641 [KOPRI-KVH-00002094]Dasya villosa Harvey (KOPRI-DCD6008) 2019-07-19
1642 [KOPRI-KVH-00002093]Dasya villosa Harvey (KOPRI-DCD6007) 2019-07-19
1643 [KOPRI-KVH-00002092]Dasya villosa Harvey (KOPRI-DCD6006) 2019-07-19
1644 [KOPRI-KVH-00002091]Dasya villosa Harvey (KOPRI-DCD6004) 2019-07-19
1645 [KOPRI-KVH-00002090]Dasya villosa Harvey (KOPRI-DCD6003) 2019-07-19
1646 [KOPRI-KVH-00002089]Dasya villosa Harvey (KOPRI-DCD6002) 2019-07-19
1647 [KOPRI-KVH-00002088]Dasya villosa Harvey (KOPRI-DCD6001) 2019-07-19
1648 [KOPRI-KPDC-00001067]Climate Measurement Around the King Sejong Station, Antarctica in 2018 2019-07-19
1649 [KOPRI-KVH-00001522]Delisea pulchra (Greville) Montagne (KOPRI-CH2999) 2019-07-16
1650 [KOPRI-KVH-00000554]Delisea pulchra (Greville) Montagne (KOPRI-CH2645) 2019-07-16
1651 [KOPRI-KVH-00000332]Delisea pulchra (Greville) Montagne (KOPRI-CH2850) 2019-07-16
1652 [KOPRI-KVH-00000331]Delisea pulchra (Greville) Montagne (KOPRI-CH2849) 2019-07-16
1653 [KOPRI-KVH-00000330]Delisea pulchra (Greville) Montagne (KOPRI-CH2848) 2019-07-16
1654 [KOPRI-KVH-00000329]Delisea pulchra (Greville) Montagne (KOPRI-CH2847) 2019-07-16
1655 [KOPRI-KVH-00000328]Delisea pulchra (Greville) Montagne (KOPRI-CH2846) 2019-07-16
1656 [KOPRI-KVH-00001523]Delisea pulchra (Greville) Montagne (KOPRI-CH3000) 2019-07-16
1657 [KOPRI-KVH-00002122]Delisea pulchra (Greville) Montagne (KOPRI-OC019) 2019-07-16
1658 [KOPRI-KVH-00000120]Delisea pulchra (Greville) Montagne (KOPRI-CH2397) 2019-07-16
1659 [KOPRI-KVH-00002123]Delisea pulchra (Greville) Montagne (KOPRI-OC020) 2019-07-16
1660 [KOPRI-KVH-00000119]Delisea pulchra (Greville) Montagne (KOPRI-CH2396) 2019-07-16
1661 [KOPRI-KPDC-00001175]Ice sheet monitoring GPS data around the Jang Bogo Station in 2018 2019-07-09
1662 [KOPRI-KPDC-00001174]Ice Sheet monitoring system(AMIGOS)data at Drygalski Ice tongue, Nansen Ice Sheet, and Campbell Glacier in 2018 2019-07-09
1663 [KOPRI-KPDC-00000600]Ice sheet monitoring GPS data at David Glacier in 2015 2019-07-09
1664 [KOPRI-KPDC-00000602]Ice sheet monitoring system (AMIGOS) data at Drygalski Ice Tongue, Nansen Ice Sheet, and Campbell Glacier in 2015 2019-07-09
1665 [KOPRI-KPDC-00000747]Ice sheet monitoring GPS data around the Jang Bogo Station in 2016 2019-07-09
1666 [KOPRI-KPDC-00000748]Ice sheet monitoring system (AMIGOS) data at Drygalski Ice tongue, Nansen Ice Sheet, and Campbell Glacier in 2016 2019-07-09
1667 [KOPRI-KPDC-00000901]Ice sheet monitoring GPS data around the Jang Bogo Station in 2017 2019-07-09
1668 [KOPRI-KPDC-00000902]Ice Sheet monitoring system(AMIGOS)data at Drygalski Ice tongue, Nansen Ice Sheet, and Campbell Glacier in 2017 2019-07-09
1669 [KOPRI-KVH-00000324]Picconiella plumosa (Kylin) J.De Toni (KOPRI-CH2832) 2019-07-08
1670 [KOPRI-KVH-00000325]Picconiella plumosa (Kylin) J.De Toni (KOPRI-CH2833) 2019-07-08
1671 [KOPRI-KVH-00000442]Picconiella plumosa (Kylin) J.De Toni (KOPRI-CH2291) 2019-07-08
1672 [KOPRI-KVH-00000443]Picconiella plumosa (Kylin) J.De Toni (KOPRI-CH2292) 2019-07-08
1673 [KOPRI-KVH-00000444]Picconiella plumosa (Kylin) J.De Toni (KOPRI-CH2293) 2019-07-08
1674 [KOPRI-KVH-00000445]Picconiella plumosa (Kylin) J.De Toni (KOPRI-CH2294) 2019-07-08
1675 [KOPRI-KVH-00000446]Picconiella plumosa (Kylin) J.De Toni (KOPRI-CH2295) 2019-07-08
1676 [KOPRI-KVH-00000453]Picconiella plumosa (Kylin) J.De Toni (KOPRI-CH2305) 2019-07-08
1677 [KOPRI-KVH-00000478]Picconiella plumosa (Kylin) J.De Toni (KOPRI-CH2340) 2019-07-08
1678 [KOPRI-KVH-00000479]Picconiella plumosa (Kylin) J.De Toni (KOPRI-CH2341) 2019-07-08
1679 [KOPRI-KVH-00000543]Picconiella plumosa (Kylin) J.De Toni (KOPRI-CH2632) 2019-07-08
1680 [KOPRI-KVH-00000544]Picconiella plumosa (Kylin) J.De Toni (KOPRI-CH2633) 2019-07-08
1681 [KOPRI-KVH-00000545]Picconiella plumosa (Kylin) J.De Toni (KOPRI-CH2634) 2019-07-08
1682 [KOPRI-KVH-00000595]Picconiella plumosa (Kylin) J.De Toni (KOPRI-CH3143) 2019-07-08
1683 [KOPRI-KVH-00001508]Picconiella plumosa (Kylin) J.De Toni (KOPRI-CH3019) 2019-07-08
1684 [KOPRI-KVH-00001520]Picconiella plumosa (Kylin) J.De Toni (KOPRI-CH2997) 2019-07-08
1685 [KOPRI-KVH-00001521]Picconiella plumosa (Kylin) J.De Toni (KOPRI-CH2998) 2019-07-08
1686 [KOPRI-KVH-00002117]Picconiella plumosa (Kylin) J.De Toni (KOPRI-OC010) 2019-07-08
1687 [KOPRI-KVH-00002118]Picconiella plumosa (Kylin) J.De Toni (KOPRI-OC011) 2019-07-08
1688 [KOPRI-KPDC-00001172]Ocean Bottom Seismometer Data in Ross Sea, Antarctica in 2015 2019-07-08
1689 [KOPRI-KPDC-00000899]Hydroacoustic data in Terra Nova Bay, 2017 2019-07-08
1690 [KOPRI-KPDC-00001171]Hydroacoustic data in Terra Nova Bay, 2018 2019-07-08
1691 [KOPRI-KVH-00002168]Codium fragile (Suringar) Hariot (KOPRI-KC041-3) 2019-07-04
1692 [KOPRI-KVH-00002167]Ceramium strictum Roth (KOPRI-KC041-2) 2019-07-04
1693 [KOPRI-KVH-00002166]Ceramium strictum Roth (KOPRI-KC041-1) 2019-07-04
1694 [KOPRI-KVH-00002165]Schizoseris dichotoma J.D. Hooker & Harvey (KOPRI-KC040) 2019-07-04
1695 [KOPRI-KVH-00002164]Lophurella hookeriana (J.Agardh) Falkenberg (KOPRI-KC039) 2019-07-04
1696 [KOPRI-KVH-00002163]Schizoseris dichotoma J.D. Hooker & Harvey (KOPRI-KC038) 2019-07-04
1697 [KOPRI-KVH-00002162]Polysiphonia anisogona J.D. Hooker & Harvey (KOPRI-KC037) 2019-07-04
1698 [KOPRI-KVH-00002161]Prionitis decipiens (Montagne) J.Agardh (KOPRI-KC036) 2019-07-04
1699 [KOPRI-KVH-00002160]Cladodonta lyallii (J.D.Hooker & Harvey) Skottsberg (KOPRI-KC035) 2019-07-04
1700 [KOPRI-KVH-00002159]Hymenena laciniata (J.D.Hooker & Harvey) Kylin (KOPRI-KC034) 2019-07-04